Time;durP1;ratioP1;P1;durP2;ratioP2;P2;SDS_P1;SDS_P2;PMS_P1;PMS_P2;Temp;Humidity;BMP_temperature;BMP_pressure;BME280_temperature;BME280_humidity;BME280_pressure;Samples;Min_cycle;Max_cycle;Signal;HPM_P1;HPM_P2
2024/04/09 00:15:18;;;;;;;15.67;13.63;;;12.80;99.90;;;;;;4723381;29;20743;-85
2024/04/09 00:40:20;;;;;;;15.43;13.17;;;12.30;99.90;;;;;;4694370;29;20589;-84
2024/04/09 00:55:58;;;;;;;15.03;13.47;;;12.40;99.90;;;;;;4720025;29;20220;-84
2024/04/09 01:21:21;;;;;;;17.63;14.70;;;12.10;99.90;;;;;;4740787;29;20664;-84
2024/04/09 01:46:35;;;;;;;17.77;15.43;;;11.80;99.90;;;;;;4732036;29;21628;-84
2024/04/09 02:11:37;;;;;;;19.27;16.27;;;11.60;99.90;;;;;;4752335;29;20548;-86
2024/04/09 02:32:06;;;;;;;17.80;15.50;;;11.50;99.90;;;;;;4557625;30;20641;-84
2024/04/09 03:02:37;;;;;;;17.93;16.03;;;11.20;99.90;;;;;;4632712;30;20316;-85
2024/04/09 03:27:57;;;;;;;21.37;16.87;;;11.10;99.90;;;;;;4627777;30;20246;-85
2024/04/09 03:53:25;;;;;;;23.63;18.30;;;10.80;99.90;;;;;;4744082;29;20583;-85
2024/04/09 04:18:48;;;;;;;20.30;18.13;;;10.70;99.90;;;;;;4743778;29;20807;-83
2024/04/09 04:49:12;;;;;;;20.67;17.80;;;11.30;99.90;;;;;;4734672;29;20209;-84
2024/04/09 05:19:42;;;;;;;16.50;13.57;;;12.60;99.90;;;;;;4783087;29;20211;-85
2024/04/09 05:39:54;;;;;;;11.57;10.30;;;13.50;99.90;;;;;;4759514;29;20279;-83
2024/04/09 06:10:17;;;;;;;11.50;10.40;;;15.30;99.90;;;;;;4836886;29;20235;-84
2024/04/09 06:30:17;;;;;;;13.33;10.80;;;16.50;99.90;;;;;;4631015;30;20281;-80
2024/04/09 06:45:57;;;;;;;13.17;11.23;;;17.00;99.90;;;;;;4630356;30;20270;-81
2024/04/09 07:16:05;;;;;;;10.20;9.13;;;18.40;99.90;;;;;;4640431;30;20291;-83
2024/04/09 07:41:45;;;;;;;10.77;8.32;;;19.90;91.40;;;;;;4709756;29;20907;-86
2024/04/09 08:01:45;;;;;;;9.52;7.60;;;20.60;87.30;;;;;;4786695;29;20318;-83
2024/04/09 08:31:10;;;;;;;10.30;7.20;;;21.50;85.10;;;;;;4552170;30;20544;-82
2024/04/09 09:37:36;;;;;;;5.80;3.20;;;23.60;69.00;;;;;;4722766;29;21188;-84
2024/04/09 09:57:58;;;;;;;3.72;2.70;;;24.70;58.60;;;;;;4769440;29;20725;-84
2024/04/09 10:37:49;;;;;;;6.45;3.63;;;25.20;54.40;;;;;;4731475;29;20717;-86
2024/04/09 10:58:15;;;;;;;6.60;3.60;;;25.20;57.70;;;;;;4612330;30;20275;-86
2024/04/09 11:38:43;;;;;;;2.58;2.38;;;25.40;56.50;;;;;;4669498;29;20641;-85
2024/04/09 11:59:26;;;;;;;3.15;2.60;;;25.80;55.20;;;;;;4563635;30;20270;-84
2024/04/09 12:29:43;;;;;;;2.70;2.50;;;26.20;54.10;;;;;;4588207;29;20581;-83
2024/04/09 12:49:57;;;;;;;13.73;3.80;;;26.20;53.80;;;;;;4586022;30;20346;-84
2024/04/09 13:10:38;;;;;;;3.25;2.50;;;26.30;54.60;;;;;;4582107;30;20239;-83
2024/04/09 13:35:40;;;;;;;5.25;2.78;;;26.00;53.20;;;;;;4454985;30;20698;-81
2024/04/09 15:02:16;;;;;;;3.10;2.85;;;28.90;50.20;;;;;;4681427;29;20506;-86
2024/04/09 15:27:14;;;;;;;5.00;2.80;;;26.20;50.60;;;;;;4670233;29;21103;-83
2024/04/09 15:47:36;;;;;;;5.50;2.60;;;25.70;51.00;;;;;;4534569;30;20673;-85
2024/04/09 17:09:00;;;;;;;3.30;2.90;;;22.00;56.20;;;;;;4601889;30;21167;-83
2024/04/09 17:34:47;;;;;;;12.02;6.70;;;19.50;77.70;;;;;;4672146;30;21408;-84
2024/04/09 17:38:52;;;;;;;13.47;8.07;;;19.20;80.70;;;;;;4611482;30;20514;-84
2024/04/09 17:59:14;;;;;;;8.30;4.67;;;18.10;88.60;;;;;;4637097;30;21253;-82
2024/04/09 18:20:00;;;;;;;8.60;5.13;;;17.50;91.40;;;;;;4538868;30;20782;-84
2024/04/09 19:05:47;;;;;;;8.43;6.77;;;17.30;96.10;;;;;;4550039;30;20437;-81
2024/04/09 19:36:04;;;;;;;8.30;7.50;;;16.20;99.90;;;;;;4822048;29;20243;-83
2024/04/09 20:01:36;;;;;;;10.60;7.57;;;15.50;99.90;;;;;;4716479;29;20378;-82
2024/04/09 20:26:27;;;;;;;10.33;9.30;;;15.10;99.90;;;;;;4572223;30;20623;-84
2024/04/09 20:47:07;;;;;;;11.13;9.00;;;14.60;99.90;;;;;;4586100;30;20271;-83
2024/04/09 21:12:23;;;;;;;10.23;9.13;;;14.30;99.90;;;;;;4635758;30;20357;-82
2024/04/09 21:42:55;;;;;;;10.87;8.60;;;14.10;99.90;;;;;;4723981;29;20263;-82
2024/04/09 21:58:06;;;;;;;11.53;10.33;;;13.60;99.90;;;;;;4868942;29;21781;-82
2024/04/09 22:28:20;;;;;;;12.33;10.13;;;13.20;99.90;;;;;;4805361;29;20741;-82
2024/04/09 23:04:02;;;;;;;14.00;10.90;;;13.00;99.90;;;;;;4773160;29;20219;-82
2024/04/09 23:28:44;;;;;;;11.97;10.23;;;12.60;99.90;;;;;;4624168;30;20768;-82
2024/04/09 23:49:57;;;;;;;11.10;9.83;;;12.30;99.90;;;;;;4663563;30;20232;-81
2024/04/09 23:54:05;;;;;;;11.33;10.13;;;12.20;99.90;;;;;;4627655;30;20589;-84
